sensor_id;sensor_type;location;lat;lon;timestamp;P1;durP1;ratioP1;P2;durP2;ratioP2
72639;SDS011;60683;51.730;8.762;2023-10-08T00:01:08;8.30;;;2.85;;
72639;SDS011;60683;51.730;8.762;2023-10-08T00:03:39;7.28;;;2.80;;
72639;SDS011;60683;51.730;8.762;2023-10-08T00:06:13;8.05;;;3.20;;
72639;SDS011;60683;51.730;8.762;2023-10-08T00:08:40;8.65;;;3.05;;
72639;SDS011;60683;51.730;8.762;2023-10-08T00:11:07;10.18;;;3.17;;
72639;SDS011;60683;51.730;8.762;2023-10-08T00:13:37;9.55;;;3.03;;
72639;SDS011;60683;51.730;8.762;2023-10-08T00:16:06;8.30;;;3.13;;
72639;SDS011;60683;51.730;8.762;2023-10-08T00:18:36;7.65;;;2.58;;
72639;SDS011;60683;51.730;8.762;2023-10-08T00:21:06;9.60;;;3.47;;
72639;SDS011;60683;51.730;8.762;2023-10-08T00:26:14;7.03;;;3.28;;
72639;SDS011;60683;51.730;8.762;2023-10-08T00:28:45;10.38;;;3.00;;
72639;SDS011;60683;51.730;8.762;2023-10-08T00:31:13;8.57;;;3.10;;
72639;SDS011;60683;51.730;8.762;2023-10-08T00:33:42;8.05;;;3.25;;
72639;SDS011;60683;51.730;8.762;2023-10-08T00:36:10;10.55;;;3.65;;
72639;SDS011;60683;51.730;8.762;2023-10-08T00:38:44;8.13;;;3.22;;
72639;SDS011;60683;51.730;8.762;2023-10-08T00:41:15;6.85;;;3.00;;
72639;SDS011;60683;51.730;8.762;2023-10-08T00:43:48;9.52;;;3.63;;
72639;SDS011;60683;51.730;8.762;2023-10-08T00:46:16;9.07;;;3.20;;
72639;SDS011;60683;51.730;8.762;2023-10-08T00:48:49;10.50;;;3.38;;
72639;SDS011;60683;51.730;8.762;2023-10-08T00:51:17;7.93;;;2.95;;
72639;SDS011;60683;51.730;8.762;2023-10-08T00:53:52;8.57;;;3.28;;
72639;SDS011;60683;51.730;8.762;2023-10-08T00:56:24;7.38;;;2.70;;
72639;SDS011;60683;51.730;8.762;2023-10-08T00:59:10;9.57;;;2.90;;
72639;SDS011;60683;51.730;8.762;2023-10-08T01:01:39;8.68;;;3.63;;
72639;SDS011;60683;51.730;8.762;2023-10-08T01:04:14;6.20;;;2.53;;
72639;SDS011;60683;51.730;8.762;2023-10-08T01:06:43;10.68;;;3.47;;
72639;SDS011;60683;51.730;8.762;2023-10-08T01:09:10;6.72;;;2.72;;
72639;SDS011;60683;51.730;8.762;2023-10-08T01:11:44;7.78;;;3.20;;
72639;SDS011;60683;51.730;8.762;2023-10-08T01:14:16;7.55;;;3.17;;
72639;SDS011;60683;51.730;8.762;2023-10-08T01:16:57;13.23;;;3.42;;
72639;SDS011;60683;51.730;8.762;2023-10-08T01:19:25;10.38;;;3.60;;
72639;SDS011;60683;51.730;8.762;2023-10-08T01:21:53;9.73;;;3.22;;
72639;SDS011;60683;51.730;8.762;2023-10-08T01:24:25;7.20;;;2.65;;
72639;SDS011;60683;51.730;8.762;2023-10-08T01:26:53;8.93;;;3.47;;
72639;SDS011;60683;51.730;8.762;2023-10-08T01:29:19;9.43;;;4.90;;
72639;SDS011;60683;51.730;8.762;2023-10-08T01:31:46;6.80;;;3.03;;
72639;SDS011;60683;51.730;8.762;2023-10-08T01:34:15;8.13;;;3.75;;
72639;SDS011;60683;51.730;8.762;2023-10-08T01:36:42;8.90;;;3.90;;
72639;SDS011;60683;51.730;8.762;2023-10-08T01:39:10;8.60;;;3.80;;
72639;SDS011;60683;51.730;8.762;2023-10-08T01:41:44;12.27;;;4.57;;
72639;SDS011;60683;51.730;8.762;2023-10-08T01:44:12;7.95;;;3.10;;
72639;SDS011;60683;51.730;8.762;2023-10-08T01:46:39;10.65;;;3.85;;
72639;SDS011;60683;51.730;8.762;2023-10-08T01:49:06;8.40;;;4.03;;
72639;SDS011;60683;51.730;8.762;2023-10-08T01:51:40;13.52;;;3.92;;
72639;SDS011;60683;51.730;8.762;2023-10-08T01:54:12;8.68;;;3.58;;
72639;SDS011;60683;51.730;8.762;2023-10-08T01:56:41;11.15;;;4.57;;
72639;SDS011;60683;51.730;8.762;2023-10-08T01:59:09;8.85;;;4.20;;
72639;SDS011;60683;51.730;8.762;2023-10-08T02:01:39;8.32;;;3.15;;
72639;SDS011;60683;51.730;8.762;2023-10-08T02:04:06;10.15;;;4.13;;
72639;SDS011;60683;51.730;8.762;2023-10-08T02:06:34;12.82;;;3.95;;
72639;SDS011;60683;51.730;8.762;2023-10-08T02:09:02;10.90;;;4.53;;
72639;SDS011;60683;51.730;8.762;2023-10-08T02:11:42;9.13;;;3.70;;
72639;SDS011;60683;51.730;8.762;2023-10-08T02:14:12;13.10;;;4.20;;
72639;SDS011;60683;51.730;8.762;2023-10-08T02:19:08;12.38;;;4.65;;
72639;SDS011;60683;51.730;8.762;2023-10-08T02:21:37;10.10;;;5.10;;
72639;SDS011;60683;51.730;8.762;2023-10-08T02:26:36;12.70;;;3.90;;
72639;SDS011;60683;51.730;8.762;2023-10-08T02:29:03;10.40;;;4.75;;
72639;SDS011;60683;51.730;8.762;2023-10-08T02:31:37;12.02;;;4.82;;
72639;SDS011;60683;51.730;8.762;2023-10-08T02:34:05;10.10;;;4.20;;
72639;SDS011;60683;51.730;8.762;2023-10-08T02:36:34;7.85;;;2.50;;
72639;SDS011;60683;51.730;8.762;2023-10-08T02:39:02;3.85;;;1.75;;
72639;SDS011;60683;51.730;8.762;2023-10-08T02:41:32;4.88;;;2.17;;
72639;SDS011;60683;51.730;8.762;2023-10-08T02:43:59;4.85;;;1.90;;
72639;SDS011;60683;51.730;8.762;2023-10-08T02:46:26;3.83;;;1.50;;
72639;SDS011;60683;51.730;8.762;2023-10-08T02:48:57;4.82;;;1.73;;
72639;SDS011;60683;51.730;8.762;2023-10-08T02:51:24;3.80;;;1.67;;
72639;SDS011;60683;51.730;8.762;2023-10-08T02:53:51;3.63;;;1.67;;
72639;SDS011;60683;51.730;8.762;2023-10-08T02:56:18;4.85;;;1.70;;
72639;SDS011;60683;51.730;8.762;2023-10-08T02:58:47;4.68;;;1.50;;
72639;SDS011;60683;51.730;8.762;2023-10-08T03:01:14;4.38;;;1.38;;
72639;SDS011;60683;51.730;8.762;2023-10-08T03:03:41;3.03;;;1.20;;
72639;SDS011;60683;51.730;8.762;2023-10-08T03:06:09;2.47;;;0.90;;
72639;SDS011;60683;51.730;8.762;2023-10-08T03:08:40;2.83;;;1.10;;
72639;SDS011;60683;51.730;8.762;2023-10-08T03:11:09;2.53;;;1.17;;
72639;SDS011;60683;51.730;8.762;2023-10-08T03:13:42;2.47;;;1.00;;
72639;SDS011;60683;51.730;8.762;2023-10-08T03:16:12;1.63;;;0.80;;
72639;SDS011;60683;51.730;8.762;2023-10-08T03:18:40;2.45;;;0.82;;
72639;SDS011;60683;51.730;8.762;2023-10-08T03:21:13;4.40;;;0.95;;
72639;SDS011;60683;51.730;8.762;2023-10-08T03:23:46;2.88;;;0.75;;
72639;SDS011;60683;51.730;8.762;2023-10-08T03:26:16;1.92;;;0.70;;
72639;SDS011;60683;51.730;8.762;2023-10-08T03:29:00;1.88;;;0.50;;
72639;SDS011;60683;51.730;8.762;2023-10-08T03:31:33;1.02;;;0.32;;
72639;SDS011;60683;51.730;8.762;2023-10-08T03:34:15;1.90;;;0.50;;
72639;SDS011;60683;51.730;8.762;2023-10-08T03:36:46;0.98;;;0.20;;
72639;SDS011;60683;51.730;8.762;2023-10-08T03:39:15;0.57;;;0.52;;
72639;SDS011;60683;51.730;8.762;2023-10-08T03:41:44;0.03;;;0.03;;
72639;SDS011;60683;51.730;8.762;2023-10-08T03:44:24;1.40;;;0.20;;
72639;SDS011;60683;51.730;8.762;2023-10-08T03:46:55;0.70;;;0.15;;
72639;SDS011;60683;51.730;8.762;2023-10-08T03:49:22;0.10;;;0.10;;
72639;SDS011;60683;51.730;8.762;2023-10-08T03:51:58;0.52;;;0.15;;
72639;SDS011;60683;51.730;8.762;2023-10-08T03:54:26;0.28;;;0.10;;
72639;SDS011;60683;51.730;8.762;2023-10-08T03:57:01;0.28;;;0.20;;
72639;SDS011;60683;51.730;8.762;2023-10-08T03:59:31;0.13;;;0.13;;
72639;SDS011;60683;51.730;8.762;2023-10-08T04:02:00;0.25;;;0.20;;
72639;SDS011;60683;51.730;8.762;2023-10-08T04:04:38;0.20;;;0.08;;
72639;SDS011;60683;51.730;8.762;2023-10-08T04:07:21;0.20;;;0.13;;
72639;SDS011;60683;51.730;8.762;2023-10-08T04:09:54;0.10;;;0.10;;
72639;SDS011;60683;51.730;8.762;2023-10-08T04:12:43;0.40;;;0.10;;
72639;SDS011;60683;51.730;8.762;2023-10-08T04:15:13;0.35;;;0.20;;
72639;SDS011;60683;51.730;8.762;2023-10-08T04:17:42;0.20;;;0.10;;
72639;SDS011;60683;51.730;8.762;2023-10-08T04:20:10;0.50;;;0.22;;
72639;SDS011;60683;51.730;8.762;2023-10-08T04:23:00;0.85;;;0.38;;
72639;SDS011;60683;51.730;8.762;2023-10-08T04:25:30;1.17;;;0.45;;
72639;SDS011;60683;51.730;8.762;2023-10-08T04:27:58;0.47;;;0.40;;
72639;SDS011;60683;51.730;8.762;2023-10-08T04:30:25;1.58;;;0.50;;
72639;SDS011;60683;51.730;8.762;2023-10-08T04:32:58;2.35;;;0.70;;
72639;SDS011;60683;51.730;8.762;2023-10-08T04:35:32;2.13;;;0.73;;
72639;SDS011;60683;51.730;8.762;2023-10-08T04:40:34;1.75;;;0.68;;
72639;SDS011;60683;51.730;8.762;2023-10-08T04:43:07;1.00;;;0.30;;
72639;SDS011;60683;51.730;8.762;2023-10-08T04:45:36;2.15;;;0.75;;
72639;SDS011;60683;51.730;8.762;2023-10-08T04:48:04;1.90;;;0.60;;
72639;SDS011;60683;51.730;8.762;2023-10-08T04:50:35;0.80;;;0.30;;
72639;SDS011;60683;51.730;8.762;2023-10-08T04:53:04;1.70;;;0.65;;
72639;SDS011;60683;51.730;8.762;2023-10-08T04:55:34;2.17;;;0.80;;
72639;SDS011;60683;51.730;8.762;2023-10-08T04:58:01;1.92;;;0.73;;
72639;SDS011;60683;51.730;8.762;2023-10-08T05:00:45;1.27;;;0.45;;
72639;SDS011;60683;51.730;8.762;2023-10-08T05:03:19;0.52;;;0.22;;
72639;SDS011;60683;51.730;8.762;2023-10-08T05:05:48;1.48;;;0.45;;
72639;SDS011;60683;51.730;8.762;2023-10-08T05:08:22;1.25;;;0.40;;
72639;SDS011;60683;51.730;8.762;2023-10-08T05:10:58;1.25;;;0.43;;
72639;SDS011;60683;51.730;8.762;2023-10-08T05:13:40;1.25;;;0.50;;
72639;SDS011;60683;51.730;8.762;2023-10-08T05:16:22;0.93;;;0.35;;
72639;SDS011;60683;51.730;8.762;2023-10-08T05:19:03;0.98;;;0.40;;
72639;SDS011;60683;51.730;8.762;2023-10-08T05:21:50;1.48;;;0.50;;
72639;SDS011;60683;51.730;8.762;2023-10-08T05:24:19;2.13;;;0.52;;
72639;SDS011;60683;51.730;8.762;2023-10-08T05:26:53;0.65;;;0.32;;
72639;SDS011;60683;51.730;8.762;2023-10-08T05:29:40;2.60;;;0.50;;
72639;SDS011;60683;51.730;8.762;2023-10-08T05:32:36;1.52;;;0.60;;
72639;SDS011;60683;51.730;8.762;2023-10-08T05:35:31;0.88;;;0.35;;
72639;SDS011;60683;51.730;8.762;2023-10-08T05:38:20;3.30;;;0.13;;
72639;SDS011;60683;51.730;8.762;2023-10-08T05:40:50;0.20;;;0.17;;
72639;SDS011;60683;51.730;8.762;2023-10-08T05:43:38;1.45;;;0.30;;
72639;SDS011;60683;51.730;8.762;2023-10-08T05:46:37;1.25;;;0.25;;
72639;SDS011;60683;51.730;8.762;2023-10-08T05:49:12;0.17;;;0.10;;
72639;SDS011;60683;51.730;8.762;2023-10-08T05:52:02;1.65;;;0.25;;
72639;SDS011;60683;51.730;8.762;2023-10-08T05:54:50;0.63;;;0.32;;
72639;SDS011;60683;51.730;8.762;2023-10-08T05:57:41;1.13;;;0.50;;
72639;SDS011;60683;51.730;8.762;2023-10-08T06:00:17;1.25;;;0.35;;
72639;SDS011;60683;51.730;8.762;2023-10-08T06:03:11;1.33;;;0.22;;
72639;SDS011;60683;51.730;8.762;2023-10-08T06:05:53;1.50;;;0.85;;
72639;SDS011;60683;51.730;8.762;2023-10-08T06:08:40;0.65;;;0.40;;
72639;SDS011;60683;51.730;8.762;2023-10-08T06:11:15;1.05;;;0.30;;
72639;SDS011;60683;51.730;8.762;2023-10-08T06:13:55;6.60;;;0.85;;
72639;SDS011;60683;51.730;8.762;2023-10-08T06:16:26;1.65;;;0.45;;
72639;SDS011;60683;51.730;8.762;2023-10-08T06:19:12;2.90;;;0.80;;
72639;SDS011;60683;51.730;8.762;2023-10-08T06:21:40;2.97;;;0.60;;
72639;SDS011;60683;51.730;8.762;2023-10-08T06:24:08;1.73;;;0.60;;
72639;SDS011;60683;51.730;8.762;2023-10-08T06:26:37;2.42;;;0.70;;
72639;SDS011;60683;51.730;8.762;2023-10-08T06:29:11;2.90;;;0.40;;
72639;SDS011;60683;51.730;8.762;2023-10-08T06:31:52;4.78;;;0.70;;
72639;SDS011;60683;51.730;8.762;2023-10-08T06:34:20;2.38;;;0.80;;
72639;SDS011;60683;51.730;8.762;2023-10-08T06:36:53;2.30;;;0.60;;
72639;SDS011;60683;51.730;8.762;2023-10-08T06:39:21;3.08;;;0.60;;
72639;SDS011;60683;51.730;8.762;2023-10-08T06:41:52;1.52;;;0.63;;
72639;SDS011;60683;51.730;8.762;2023-10-08T06:44:20;1.35;;;0.40;;
72639;SDS011;60683;51.730;8.762;2023-10-08T06:46:47;1.70;;;0.60;;
72639;SDS011;60683;51.730;8.762;2023-10-08T06:49:18;3.35;;;0.60;;
72639;SDS011;60683;51.730;8.762;2023-10-08T06:51:49;1.65;;;0.20;;
72639;SDS011;60683;51.730;8.762;2023-10-08T06:54:17;2.53;;;0.63;;
72639;SDS011;60683;51.730;8.762;2023-10-08T06:56:45;1.73;;;0.60;;
72639;SDS011;60683;51.730;8.762;2023-10-08T06:59:17;0.52;;;0.38;;
72639;SDS011;60683;51.730;8.762;2023-10-08T07:01:49;2.63;;;0.80;;
72639;SDS011;60683;51.730;8.762;2023-10-08T07:04:17;3.05;;;0.57;;
72639;SDS011;60683;51.730;8.762;2023-10-08T07:06:46;3.05;;;0.57;;
72639;SDS011;60683;51.730;8.762;2023-10-08T07:09:16;4.97;;;1.05;;
72639;SDS011;60683;51.730;8.762;2023-10-08T07:11:54;4.28;;;0.88;;
72639;SDS011;60683;51.730;8.762;2023-10-08T07:14:22;2.15;;;0.63;;
72639;SDS011;60683;51.730;8.762;2023-10-08T07:16:54;2.45;;;0.60;;
72639;SDS011;60683;51.730;8.762;2023-10-08T07:19:24;4.07;;;0.60;;
72639;SDS011;60683;51.730;8.762;2023-10-08T07:21:58;3.33;;;0.57;;
72639;SDS011;60683;51.730;8.762;2023-10-08T07:24:30;2.00;;;0.60;;
72639;SDS011;60683;51.730;8.762;2023-10-08T07:27:00;3.55;;;0.93;;
72639;SDS011;60683;51.730;8.762;2023-10-08T07:29:31;0.85;;;0.43;;
72639;SDS011;60683;51.730;8.762;2023-10-08T07:31:59;1.25;;;0.60;;
72639;SDS011;60683;51.730;8.762;2023-10-08T07:34:35;1.70;;;0.60;;
72639;SDS011;60683;51.730;8.762;2023-10-08T07:37:03;2.70;;;1.00;;
72639;SDS011;60683;51.730;8.762;2023-10-08T07:39:31;3.65;;;1.35;;
72639;SDS011;60683;51.730;8.762;2023-10-08T07:42:02;4.75;;;0.70;;
72639;SDS011;60683;51.730;8.762;2023-10-08T07:47:02;2.22;;;0.60;;
72639;SDS011;60683;51.730;8.762;2023-10-08T07:49:35;6.35;;;0.85;;
72639;SDS011;60683;51.730;8.762;2023-10-08T07:52:03;2.80;;;0.77;;
72639;SDS011;60683;51.730;8.762;2023-10-08T07:54:31;5.20;;;0.88;;
72639;SDS011;60683;51.730;8.762;2023-10-08T07:56:59;3.60;;;0.70;;
72639;SDS011;60683;51.730;8.762;2023-10-08T07:59:34;2.38;;;0.82;;
72639;SDS011;60683;51.730;8.762;2023-10-08T08:02:05;2.20;;;0.73;;
72639;SDS011;60683;51.730;8.762;2023-10-08T08:04:35;2.70;;;0.60;;
72639;SDS011;60683;51.730;8.762;2023-10-08T08:07:03;3.22;;;0.57;;
72639;SDS011;60683;51.730;8.762;2023-10-08T08:09:31;2.58;;;0.70;;
72639;SDS011;60683;51.730;8.762;2023-10-08T08:12:04;2.88;;;0.57;;
72639;SDS011;60683;51.730;8.762;2023-10-08T08:14:34;2.83;;;0.80;;
72639;SDS011;60683;51.730;8.762;2023-10-08T08:17:05;1.25;;;0.55;;
72639;SDS011;60683;51.730;8.762;2023-10-08T08:22:06;3.58;;;1.05;;
72639;SDS011;60683;51.730;8.762;2023-10-08T08:24:33;2.97;;;0.52;;
72639;SDS011;60683;51.730;8.762;2023-10-08T08:27:02;2.40;;;0.75;;
72639;SDS011;60683;51.730;8.762;2023-10-08T08:29:36;3.58;;;0.85;;
72639;SDS011;60683;51.730;8.762;2023-10-08T08:32:11;3.10;;;0.70;;
72639;SDS011;60683;51.730;8.762;2023-10-08T08:34:41;1.60;;;0.60;;
72639;SDS011;60683;51.730;8.762;2023-10-08T08:37:09;5.22;;;1.50;;
72639;SDS011;60683;51.730;8.762;2023-10-08T08:39:37;3.83;;;0.65;;
72639;SDS011;60683;51.730;8.762;2023-10-08T08:42:06;3.10;;;0.73;;
72639;SDS011;60683;51.730;8.762;2023-10-08T08:44:35;4.53;;;0.95;;
72639;SDS011;60683;51.730;8.762;2023-10-08T08:47:05;5.93;;;1.00;;
72639;SDS011;60683;51.730;8.762;2023-10-08T08:49:37;1.88;;;0.40;;
72639;SDS011;60683;51.730;8.762;2023-10-08T08:52:05;1.63;;;0.63;;
72639;SDS011;60683;51.730;8.762;2023-10-08T08:54:32;2.92;;;0.63;;
72639;SDS011;60683;51.730;8.762;2023-10-08T08:56:59;5.95;;;1.00;;
72639;SDS011;60683;51.730;8.762;2023-10-08T08:59:32;3.63;;;0.70;;
72639;SDS011;60683;51.730;8.762;2023-10-08T09:02:02;2.22;;;0.60;;
72639;SDS011;60683;51.730;8.762;2023-10-08T09:04:33;3.45;;;0.52;;
72639;SDS011;60683;51.730;8.762;2023-10-08T09:07:04;1.92;;;0.70;;
72639;SDS011;60683;51.730;8.762;2023-10-08T09:09:31;1.55;;;0.38;;
72639;SDS011;60683;51.730;8.762;2023-10-08T09:11:58;1.98;;;0.63;;
72639;SDS011;60683;51.730;8.762;2023-10-08T09:14:26;3.17;;;0.60;;
72639;SDS011;60683;51.730;8.762;2023-10-08T09:16:55;1.88;;;0.60;;
72639;SDS011;60683;51.730;8.762;2023-10-08T09:19:22;2.10;;;0.60;;
72639;SDS011;60683;51.730;8.762;2023-10-08T09:22:00;1.38;;;0.63;;
72639;SDS011;60683;51.730;8.762;2023-10-08T09:24:31;1.75;;;0.57;;
72639;SDS011;60683;51.730;8.762;2023-10-08T09:26:59;1.77;;;0.57;;
72639;SDS011;60683;51.730;8.762;2023-10-08T09:29:27;1.90;;;0.60;;
72639;SDS011;60683;51.730;8.762;2023-10-08T09:31:55;1.60;;;0.50;;
72639;SDS011;60683;51.730;8.762;2023-10-08T09:34:26;3.00;;;0.63;;
72639;SDS011;60683;51.730;8.762;2023-10-08T09:36:54;4.32;;;0.70;;
72639;SDS011;60683;51.730;8.762;2023-10-08T09:39:23;2.22;;;0.80;;
72639;SDS011;60683;51.730;8.762;2023-10-08T09:41:54;3.35;;;0.70;;
72639;SDS011;60683;51.730;8.762;2023-10-08T09:44:22;2.70;;;0.65;;
72639;SDS011;60683;51.730;8.762;2023-10-08T09:46:52;3.88;;;0.82;;
72639;SDS011;60683;51.730;8.762;2023-10-08T09:49:23;3.25;;;0.43;;
72639;SDS011;60683;51.730;8.762;2023-10-08T09:51:58;4.63;;;0.60;;
72639;SDS011;60683;51.730;8.762;2023-10-08T09:54:28;2.92;;;0.65;;
72639;SDS011;60683;51.730;8.762;2023-10-08T09:56:59;4.97;;;0.80;;
72639;SDS011;60683;51.730;8.762;2023-10-08T09:59:32;1.30;;;0.40;;
72639;SDS011;60683;51.730;8.762;2023-10-08T10:02:00;2.60;;;1.13;;
72639;SDS011;60683;51.730;8.762;2023-10-08T10:04:29;2.88;;;0.90;;
72639;SDS011;60683;51.730;8.762;2023-10-08T10:06:57;3.55;;;0.93;;
72639;SDS011;60683;51.730;8.762;2023-10-08T10:09:25;2.42;;;0.68;;
72639;SDS011;60683;51.730;8.762;2023-10-08T10:11:53;2.42;;;0.60;;
72639;SDS011;60683;51.730;8.762;2023-10-08T10:14:24;6.80;;;0.68;;
72639;SDS011;60683;51.730;8.762;2023-10-08T10:17:12;3.25;;;0.80;;
72639;SDS011;60683;51.730;8.762;2023-10-08T10:19:42;4.03;;;1.05;;
72639;SDS011;60683;51.730;8.762;2023-10-08T10:22:13;4.90;;;0.57;;
72639;SDS011;60683;51.730;8.762;2023-10-08T10:24:42;4.13;;;0.70;;
72639;SDS011;60683;51.730;8.762;2023-10-08T10:27:11;3.47;;;0.80;;
72639;SDS011;60683;51.730;8.762;2023-10-08T10:29:41;4.22;;;0.82;;
72639;SDS011;60683;51.730;8.762;2023-10-08T10:32:10;3.22;;;0.70;;
72639;SDS011;60683;51.730;8.762;2023-10-08T10:34:40;5.80;;;1.52;;
72639;SDS011;60683;51.730;8.762;2023-10-08T10:37:09;1.40;;;0.60;;
72639;SDS011;60683;51.730;8.762;2023-10-08T10:39:51;2.92;;;0.80;;
72639;SDS011;60683;51.730;8.762;2023-10-08T10:42:20;3.95;;;0.60;;
72639;SDS011;60683;51.730;8.762;2023-10-08T10:44:49;2.03;;;0.57;;
72639;SDS011;60683;51.730;8.762;2023-10-08T10:47:18;5.80;;;1.02;;
72639;SDS011;60683;51.730;8.762;2023-10-08T10:50:08;2.22;;;0.57;;
72639;SDS011;60683;51.730;8.762;2023-10-08T10:52:52;2.67;;;0.63;;
72639;SDS011;60683;51.730;8.762;2023-10-08T10:55:20;3.25;;;0.60;;
72639;SDS011;60683;51.730;8.762;2023-10-08T10:57:57;4.38;;;0.80;;
72639;SDS011;60683;51.730;8.762;2023-10-08T11:00:31;2.38;;;0.63;;
72639;SDS011;60683;51.730;8.762;2023-10-08T11:03:14;1.65;;;0.50;;
72639;SDS011;60683;51.730;8.762;2023-10-08T11:05:46;3.97;;;0.88;;
72639;SDS011;60683;51.730;8.762;2023-10-08T11:08:16;3.15;;;1.17;;
72639;SDS011;60683;51.730;8.762;2023-10-08T11:10:46;1.25;;;0.55;;
72639;SDS011;60683;51.730;8.762;2023-10-08T11:13:17;1.42;;;0.52;;
72639;SDS011;60683;51.730;8.762;2023-10-08T11:15:47;2.53;;;0.82;;
72639;SDS011;60683;51.730;8.762;2023-10-08T11:18:17;3.05;;;0.43;;
72639;SDS011;60683;51.730;8.762;2023-10-08T11:20:47;2.70;;;0.93;;
72639;SDS011;60683;51.730;8.762;2023-10-08T11:23:32;2.92;;;0.35;;
72639;SDS011;60683;51.730;8.762;2023-10-08T11:26:02;2.65;;;0.57;;
72639;SDS011;60683;51.730;8.762;2023-10-08T11:28:31;2.25;;;0.65;;
72639;SDS011;60683;51.730;8.762;2023-10-08T11:31:02;3.97;;;0.70;;
72639;SDS011;60683;51.730;8.762;2023-10-08T11:33:35;4.88;;;0.70;;
72639;SDS011;60683;51.730;8.762;2023-10-08T11:36:03;2.55;;;0.50;;
72639;SDS011;60683;51.730;8.762;2023-10-08T11:38:38;3.05;;;0.52;;
72639;SDS011;60683;51.730;8.762;2023-10-08T11:41:10;2.45;;;0.50;;
72639;SDS011;60683;51.730;8.762;2023-10-08T11:43:47;2.58;;;0.50;;
72639;SDS011;60683;51.730;8.762;2023-10-08T11:46:21;2.30;;;0.35;;
72639;SDS011;60683;51.730;8.762;2023-10-08T11:48:51;5.93;;;1.30;;
72639;SDS011;60683;51.730;8.762;2023-10-08T11:51:17;3.42;;;0.60;;
72639;SDS011;60683;51.730;8.762;2023-10-08T11:53:49;3.22;;;0.63;;
72639;SDS011;60683;51.730;8.762;2023-10-08T11:56:17;3.13;;;0.68;;
72639;SDS011;60683;51.730;8.762;2023-10-08T11:58:48;3.85;;;0.82;;
72639;SDS011;60683;51.730;8.762;2023-10-08T12:01:16;9.65;;;1.20;;
72639;SDS011;60683;51.730;8.762;2023-10-08T12:03:45;2.33;;;0.65;;
72639;SDS011;60683;51.730;8.762;2023-10-08T12:06:15;1.80;;;0.40;;
72639;SDS011;60683;51.730;8.762;2023-10-08T12:08:44;2.80;;;0.73;;
72639;SDS011;60683;51.730;8.762;2023-10-08T12:11:14;4.90;;;0.60;;
72639;SDS011;60683;51.730;8.762;2023-10-08T12:13:42;2.40;;;0.45;;
72639;SDS011;60683;51.730;8.762;2023-10-08T12:16:11;3.65;;;0.77;;
72639;SDS011;60683;51.730;8.762;2023-10-08T12:18:46;1.88;;;0.40;;
72639;SDS011;60683;51.730;8.762;2023-10-08T12:21:18;3.17;;;0.60;;
72639;SDS011;60683;51.730;8.762;2023-10-08T12:23:46;3.90;;;0.63;;
72639;SDS011;60683;51.730;8.762;2023-10-08T12:26:15;1.92;;;0.47;;
72639;SDS011;60683;51.730;8.762;2023-10-08T12:28:44;3.33;;;0.90;;
72639;SDS011;60683;51.730;8.762;2023-10-08T12:31:13;2.40;;;0.50;;
72639;SDS011;60683;51.730;8.762;2023-10-08T12:33:42;1.83;;;0.50;;
72639;SDS011;60683;51.730;8.762;2023-10-08T12:36:11;2.08;;;0.47;;
72639;SDS011;60683;51.730;8.762;2023-10-08T12:38:39;1.23;;;0.30;;
72639;SDS011;60683;51.730;8.762;2023-10-08T12:41:07;3.40;;;0.55;;
72639;SDS011;60683;51.730;8.762;2023-10-08T12:43:38;4.88;;;0.77;;
72639;SDS011;60683;51.730;8.762;2023-10-08T12:46:07;2.55;;;0.77;;
72639;SDS011;60683;51.730;8.762;2023-10-08T12:48:42;3.25;;;0.50;;
72639;SDS011;60683;51.730;8.762;2023-10-08T12:51:14;3.20;;;0.80;;
72639;SDS011;60683;51.730;8.762;2023-10-08T12:53:41;2.08;;;0.70;;
72639;SDS011;60683;51.730;8.762;2023-10-08T12:56:16;1.88;;;0.60;;
72639;SDS011;60683;51.730;8.762;2023-10-08T12:58:47;1.20;;;0.45;;
72639;SDS011;60683;51.730;8.762;2023-10-08T13:01:14;3.58;;;0.73;;
72639;SDS011;60683;51.730;8.762;2023-10-08T13:03:43;5.18;;;0.73;;
72639;SDS011;60683;51.730;8.762;2023-10-08T13:06:14;3.05;;;0.77;;
72639;SDS011;60683;51.730;8.762;2023-10-08T13:08:47;2.05;;;0.70;;
72639;SDS011;60683;51.730;8.762;2023-10-08T13:11:15;2.50;;;0.85;;
72639;SDS011;60683;51.730;8.762;2023-10-08T13:13:48;5.03;;;0.95;;
72639;SDS011;60683;51.730;8.762;2023-10-08T13:16:16;3.58;;;0.70;;
72639;SDS011;60683;51.730;8.762;2023-10-08T13:18:44;3.88;;;0.65;;
72639;SDS011;60683;51.730;8.762;2023-10-08T13:21:11;3.97;;;0.90;;
72639;SDS011;60683;51.730;8.762;2023-10-08T13:23:40;2.72;;;0.98;;
72639;SDS011;60683;51.730;8.762;2023-10-08T13:26:07;2.40;;;0.52;;
72639;SDS011;60683;51.730;8.762;2023-10-08T13:28:34;1.85;;;0.60;;
72639;SDS011;60683;51.730;8.762;2023-10-08T13:31:02;4.55;;;0.80;;
72639;SDS011;60683;51.730;8.762;2023-10-08T13:33:35;1.98;;;0.60;;
72639;SDS011;60683;51.730;8.762;2023-10-08T13:36:05;4.30;;;0.80;;
72639;SDS011;60683;51.730;8.762;2023-10-08T13:41:03;3.42;;;1.08;;
72639;SDS011;60683;51.730;8.762;2023-10-08T13:46:03;3.30;;;0.82;;
72639;SDS011;60683;51.730;8.762;2023-10-08T13:48:38;2.33;;;0.57;;
72639;SDS011;60683;51.730;8.762;2023-10-08T13:51:06;2.25;;;0.50;;
72639;SDS011;60683;51.730;8.762;2023-10-08T13:53:39;3.58;;;0.82;;
72639;SDS011;60683;51.730;8.762;2023-10-08T13:56:11;5.03;;;0.70;;
72639;SDS011;60683;51.730;8.762;2023-10-08T13:58:39;2.05;;;0.50;;
72639;SDS011;60683;51.730;8.762;2023-10-08T14:01:15;2.13;;;0.70;;
72639;SDS011;60683;51.730;8.762;2023-10-08T14:03:46;3.03;;;0.40;;
72639;SDS011;60683;51.730;8.762;2023-10-08T14:06:13;0.82;;;0.20;;
72639;SDS011;60683;51.730;8.762;2023-10-08T14:08:42;4.30;;;0.70;;
72639;SDS011;60683;51.730;8.762;2023-10-08T14:11:18;3.13;;;0.80;;
72639;SDS011;60683;51.730;8.762;2023-10-08T14:13:49;2.50;;;0.63;;
72639;SDS011;60683;51.730;8.762;2023-10-08T14:16:16;3.40;;;0.65;;
72639;SDS011;60683;51.730;8.762;2023-10-08T14:18:44;4.40;;;0.75;;
72639;SDS011;60683;51.730;8.762;2023-10-08T14:21:19;2.92;;;0.95;;
72639;SDS011;60683;51.730;8.762;2023-10-08T14:23:49;2.55;;;0.65;;
72639;SDS011;60683;51.730;8.762;2023-10-08T14:26:19;3.17;;;0.80;;
72639;SDS011;60683;51.730;8.762;2023-10-08T14:28:48;2.67;;;0.55;;
72639;SDS011;60683;51.730;8.762;2023-10-08T14:31:18;3.85;;;1.10;;
72639;SDS011;60683;51.730;8.762;2023-10-08T14:33:48;2.28;;;0.70;;
72639;SDS011;60683;51.730;8.762;2023-10-08T14:36:30;25.10;;;1.50;;
72639;SDS011;60683;51.730;8.762;2023-10-08T14:39:16;2.83;;;0.40;;
72639;SDS011;60683;51.730;8.762;2023-10-08T14:42:02;3.83;;;0.57;;
72639;SDS011;60683;51.730;8.762;2023-10-08T14:44:47;1.55;;;0.32;;
72639;SDS011;60683;51.730;8.762;2023-10-08T14:47:16;5.75;;;1.08;;
72639;SDS011;60683;51.730;8.762;2023-10-08T14:49:43;1.60;;;0.47;;
72639;SDS011;60683;51.730;8.762;2023-10-08T14:52:11;2.72;;;0.70;;
72639;SDS011;60683;51.730;8.762;2023-10-08T14:54:38;2.47;;;0.50;;
72639;SDS011;60683;51.730;8.762;2023-10-08T14:57:08;3.13;;;0.82;;
72639;SDS011;60683;51.730;8.762;2023-10-08T14:59:38;5.38;;;1.25;;
72639;SDS011;60683;51.730;8.762;2023-10-08T15:02:04;3.58;;;0.70;;
72639;SDS011;60683;51.730;8.762;2023-10-08T15:04:32;1.60;;;0.50;;
72639;SDS011;60683;51.730;8.762;2023-10-08T15:07:04;4.43;;;0.95;;
72639;SDS011;60683;51.730;8.762;2023-10-08T15:09:34;5.15;;;0.90;;
72639;SDS011;60683;51.730;8.762;2023-10-08T15:12:01;5.07;;;0.80;;
72639;SDS011;60683;51.730;8.762;2023-10-08T15:14:30;6.28;;;0.93;;
72639;SDS011;60683;51.730;8.762;2023-10-08T15:16:57;5.30;;;1.13;;
72639;SDS011;60683;51.730;8.762;2023-10-08T15:19:24;3.60;;;1.02;;
72639;SDS011;60683;51.730;8.762;2023-10-08T15:21:51;6.07;;;0.98;;
72639;SDS011;60683;51.730;8.762;2023-10-08T15:24:18;4.90;;;0.90;;
72639;SDS011;60683;51.730;8.762;2023-10-08T15:26:46;1.15;;;0.50;;
72639;SDS011;60683;51.730;8.762;2023-10-08T15:29:14;3.85;;;0.90;;
72639;SDS011;60683;51.730;8.762;2023-10-08T15:31:42;1.58;;;0.60;;
72639;SDS011;60683;51.730;8.762;2023-10-08T15:34:11;3.28;;;0.88;;